createdAt,value
2019-02-23T00:01:20.685Z,8.00
2019-02-23T00:03:49.096Z,7.25
2019-02-23T00:06:28.985Z,8.50
2019-02-23T00:08:47.618Z,5.40
2019-02-23T00:11:16.018Z,10.85
2019-02-23T00:13:44.419Z,8.28
2019-02-23T00:16:12.822Z,7.65
2019-02-23T00:18:41.243Z,7.60
2019-02-23T00:21:09.643Z,11.45
2019-02-23T00:23:38.457Z,10.05
2019-02-23T00:26:07.239Z,7.55
2019-02-23T00:28:35.910Z,7.00
2019-02-23T00:31:07.183Z,7.30
2019-02-23T00:33:35.944Z,8.40
2019-02-23T00:36:04.340Z,7.15
2019-02-23T00:38:32.769Z,6.87
2019-02-23T00:41:01.702Z,8.03
2019-02-23T00:43:30.122Z,7.60
2019-02-23T00:45:58.499Z,7.03
2019-02-23T00:48:26.894Z,8.85
2019-02-23T00:50:55.303Z,7.08
2019-02-23T00:53:23.691Z,7.53
2019-02-23T00:55:52.107Z,8.05
2019-02-23T00:58:20.964Z,9.00
2019-02-23T01:00:49.375Z,7.42
2019-02-23T01:03:17.776Z,8.08
2019-02-23T01:05:46.515Z,7.28
2019-02-23T01:08:14.902Z,6.47
2019-02-23T01:10:43.314Z,7.92
2019-02-23T01:13:11.707Z,7.03
2019-02-23T01:15:40.125Z,6.47
2019-02-23T01:18:08.515Z,14.45
2019-02-23T01:20:36.934Z,8.10
2019-02-23T01:23:05.777Z,7.70
2019-02-23T01:25:34.186Z,7.95
2019-02-23T01:28:02.575Z,7.80
2019-02-23T01:30:30.974Z,7.45
2019-02-23T01:32:59.395Z,7.92
2019-02-23T01:35:28.082Z,7.85
2019-02-23T01:37:56.490Z,9.33
2019-02-23T01:40:25.145Z,10.10
2019-02-23T01:42:55.089Z,7.78
2019-02-23T01:45:23.483Z,7.78
2019-02-23T01:47:52.228Z,8.88
2019-02-23T01:50:20.622Z,8.18
2019-02-23T01:52:49.035Z,8.08
2019-02-23T01:55:17.767Z,6.45
2019-02-23T01:57:46.180Z,8.33
2019-02-23T02:00:15.432Z,7.83
2019-02-23T02:02:44.505Z,7.22
2019-02-23T02:05:12.985Z,8.90
2019-02-23T02:07:41.400Z,11.60
2019-02-23T02:10:10.695Z,8.40
2019-02-23T02:12:39.102Z,6.90
2019-02-23T02:15:12.681Z,7.42
2019-02-23T02:17:41.104Z,7.87
2019-02-23T02:20:11.447Z,8.90
2019-02-23T02:22:40.090Z,8.98
2019-02-23T02:25:09.157Z,6.95
2019-02-23T02:27:37.868Z,9.93
2019-02-23T02:30:09.109Z,6.80
2019-02-23T02:32:37.792Z,9.43
2019-02-23T02:35:07.986Z,10.55
2019-02-23T02:37:36.419Z,10.88
2019-02-23T02:40:06.172Z,10.03
2019-02-23T02:42:34.899Z,12.33
2019-02-23T02:45:03.300Z,9.13
2019-02-23T02:47:31.698Z,10.72
2019-02-23T02:50:00.441Z,13.35
2019-02-23T02:52:28.848Z,8.45
2019-02-23T02:54:57.267Z,10.38
2019-02-23T02:57:25.659Z,9.73
2019-02-23T02:59:54.073Z,9.08
2019-02-23T03:02:22.473Z,10.60
2019-02-23T03:04:51.230Z,10.68
2019-02-23T03:07:19.636Z,10.40
2019-02-23T03:09:48.039Z,9.73
2019-02-23T03:12:16.432Z,9.70
2019-02-23T03:14:44.854Z,12.10
2019-02-23T03:17:13.526Z,8.48
2019-02-23T03:19:42.213Z,9.00
2019-02-23T03:22:10.643Z,8.18
2019-02-23T03:24:39.050Z,10.90
2019-02-23T03:27:07.865Z,10.82
2019-02-23T03:29:36.264Z,10.18
2019-02-23T03:32:04.679Z,9.08
2019-02-23T03:34:33.074Z,8.93
2019-02-23T03:37:01.498Z,10.65
2019-02-23T03:39:30.163Z,9.38
2019-02-23T03:41:58.644Z,11.78
2019-02-23T03:44:27.044Z,12.73
2019-02-23T03:46:55.457Z,9.70
2019-02-23T03:49:23.835Z,9.75
2019-02-23T03:51:52.246Z,11.25
2019-02-23T03:54:20.709Z,9.50
2019-02-23T03:56:49.446Z,12.13
2019-02-23T03:59:17.853Z,10.63
2019-02-23T04:01:46.334Z,13.30
2019-02-23T04:04:14.737Z,9.23
2019-02-23T04:06:43.147Z,13.98
2019-02-23T04:09:11.539Z,9.50
2019-02-23T04:11:40.226Z,11.20
2019-02-23T04:14:08.633Z,11.55
2019-02-23T04:16:37.031Z,11.83
2019-02-23T04:19:05.442Z,12.90
2019-02-23T04:21:33.844Z,12.15
2019-02-23T04:24:02.274Z,10.13
2019-02-23T04:26:30.671Z,14.65
2019-02-23T04:28:59.082Z,12.65
2019-02-23T04:31:27.496Z,10.03
2019-02-23T04:33:55.918Z,9.18
2019-02-23T04:36:24.663Z,9.58
2019-02-23T04:38:53.079Z,10.65
2019-02-23T04:41:21.481Z,11.83
2019-02-23T04:43:49.888Z,10.20
2019-02-23T04:46:18.295Z,10.13
2019-02-23T04:48:46.783Z,12.82
2019-02-23T04:51:15.176Z,12.18
2019-02-23T04:53:43.588Z,18.32
2019-02-23T04:56:11.989Z,10.45
2019-02-23T04:58:40.417Z,10.93
2019-02-23T05:01:08.820Z,11.10
2019-02-23T05:03:37.219Z,10.72
2019-02-23T05:06:05.638Z,10.25
2019-02-23T05:08:34.320Z,11.05
2019-02-23T05:11:02.742Z,12.10
2019-02-23T05:13:31.159Z,11.12
2019-02-23T05:15:59.584Z,10.63
2019-02-23T05:18:27.990Z,12.73
2019-02-23T05:20:56.403Z,8.78
2019-02-23T05:23:25.500Z,10.53
2019-02-23T05:25:53.924Z,9.85
2019-02-23T05:28:22.322Z,10.20
2019-02-23T05:30:50.740Z,9.78
2019-02-23T05:33:19.181Z,8.73
2019-02-23T05:35:47.550Z,11.60
2019-02-23T05:38:15.954Z,12.05
2019-02-23T05:40:44.663Z,10.68
2019-02-23T05:43:13.367Z,10.05
2019-02-23T05:45:41.778Z,10.08
2019-02-23T05:48:10.181Z,9.40
2019-02-23T05:50:38.974Z,10.43
2019-02-23T05:53:07.370Z,9.55
2019-02-23T05:55:36.069Z,11.35
2019-02-23T05:58:04.465Z,9.98
2019-02-23T06:00:32.886Z,9.35
2019-02-23T06:03:01.290Z,10.48
2019-02-23T06:05:29.681Z,9.40
2019-02-23T06:07:58.368Z,10.78
2019-02-23T06:10:27.072Z,10.28
2019-02-23T06:12:55.473Z,9.68
2019-02-23T06:15:24.247Z,11.68
2019-02-23T06:17:52.656Z,15.68
2019-02-23T06:20:21.384Z,10.82
2019-02-23T06:22:49.806Z,10.90
2019-02-23T06:25:18.219Z,11.30
2019-02-23T06:27:46.626Z,11.50
2019-02-23T06:30:18.234Z,11.55
2019-02-23T06:32:45.167Z,10.95
2019-02-23T06:35:13.573Z,14.18
2019-02-23T06:37:42.010Z,10.50
2019-02-23T06:40:11.837Z,10.23
2019-02-23T06:42:40.692Z,10.43
2019-02-23T06:45:11.729Z,13.03
2019-02-23T06:47:40.183Z,12.17
2019-02-23T06:50:09.018Z,19.17
2019-02-23T06:52:37.424Z,12.40
2019-02-23T06:55:06.964Z,13.35
2019-02-23T06:57:35.368Z,17.77
2019-02-23T07:00:06.126Z,13.18
2019-02-23T07:02:34.826Z,12.45
2019-02-23T07:05:08.221Z,14.10
2019-02-23T07:07:39.084Z,12.90
2019-02-23T07:10:18.008Z,12.63
2019-02-23T07:12:47.043Z,13.75
2019-02-23T07:15:15.882Z,10.88
2019-02-23T07:17:44.922Z,15.25
2019-02-23T07:20:13.634Z,18.85
2019-02-23T07:22:42.216Z,13.83
2019-02-23T07:25:11.711Z,15.10
2019-02-23T07:27:40.315Z,16.87
2019-02-23T07:30:11.807Z,21.70
2019-02-23T07:32:40.528Z,17.60
2019-02-23T07:35:09.289Z,14.83
2019-02-23T07:37:37.998Z,16.32
2019-02-23T07:40:11.445Z,15.85
2019-02-23T07:42:39.846Z,17.30
2019-02-23T07:45:10.020Z,16.87
2019-02-23T07:47:38.422Z,17.05
2019-02-23T07:50:12.728Z,22.05
2019-02-23T07:52:41.128Z,15.63
2019-02-23T07:55:09.536Z,18.10
2019-02-23T07:57:37.969Z,17.02
2019-02-23T08:00:12.222Z,19.23
2019-02-23T08:02:42.269Z,17.42
2019-02-23T08:05:10.954Z,15.30
2019-02-23T08:07:40.078Z,20.17
2019-02-23T08:10:10.494Z,15.75
2019-02-23T08:12:39.266Z,13.95
2019-02-23T08:15:10.025Z,13.93
2019-02-23T08:17:38.825Z,15.55
2019-02-23T08:20:14.014Z,13.32
2019-02-23T08:22:42.741Z,16.73
2019-02-23T08:25:13.239Z,20.82
2019-02-23T08:27:41.652Z,19.02
2019-02-23T08:30:15.065Z,17.30
2019-02-23T08:32:43.468Z,17.87
2019-02-23T08:35:11.868Z,14.05
2019-02-23T08:37:40.281Z,13.53
2019-02-23T08:40:13.623Z,12.82
2019-02-23T08:42:42.340Z,16.90
2019-02-23T08:45:11.472Z,12.45
2019-02-23T08:47:39.856Z,13.43
2019-02-23T08:50:14.163Z,15.88
2019-02-23T08:52:49.089Z,16.52
2019-02-23T08:55:14.348Z,11.90
2019-02-23T08:57:42.752Z,14.18
2019-02-23T09:00:14.053Z,13.05
2019-02-23T09:02:42.467Z,20.50
2019-02-23T09:05:11.837Z,14.45
2019-02-23T09:07:40.253Z,12.85
2019-02-23T09:10:11.092Z,10.85
2019-02-23T09:12:39.509Z,15.55
2019-02-23T09:15:09.367Z,12.60
2019-02-23T09:17:37.790Z,11.05
2019-02-23T09:23:00.235Z,13.18
2019-02-23T09:25:26.863Z,12.95
2019-02-23T09:27:55.297Z,11.73
2019-02-23T09:30:23.703Z,12.03
2019-02-23T09:32:52.275Z,12.50
2019-02-23T09:35:20.949Z,9.05
2019-02-23T09:37:49.352Z,11.63
2019-02-23T09:40:19.596Z,10.88
2019-02-23T09:42:48.070Z,12.33
2019-02-23T09:45:16.503Z,11.20
2019-02-23T09:47:44.904Z,10.72
2019-02-23T09:50:13.304Z,9.83
2019-02-23T09:52:42.104Z,11.83
2019-02-23T09:55:10.990Z,11.97
2019-02-23T09:57:39.410Z,13.18
2019-02-23T10:00:11.028Z,12.40
2019-02-23T10:02:39.426Z,10.30
2019-02-23T10:05:10.047Z,10.95
2019-02-23T10:07:38.272Z,13.25
2019-02-23T10:10:11.461Z,12.03
2019-02-23T10:12:39.867Z,13.18
2019-02-23T10:15:12.041Z,15.45
2019-02-23T10:17:40.751Z,15.08
2019-02-23T10:20:13.879Z,13.30
2019-02-23T10:22:42.293Z,17.98
2019-02-23T10:25:10.694Z,13.78
2019-02-23T10:27:39.348Z,14.23
2019-02-23T10:30:13.083Z,13.15
2019-02-23T10:32:41.738Z,11.95
2019-02-23T10:35:11.775Z,11.05
2019-02-23T10:37:40.186Z,12.73
2019-02-23T10:40:10.973Z,16.32
2019-02-23T10:42:39.373Z,11.25
2019-02-23T10:45:10.587Z,10.58
2019-02-23T10:47:38.989Z,14.95
2019-02-23T10:50:10.043Z,12.60
2019-02-23T10:52:38.437Z,9.88
2019-02-23T10:55:14.635Z,11.10
2019-02-23T10:57:43.039Z,14.07
2019-02-23T11:00:22.380Z,15.08
2019-02-23T11:02:50.942Z,9.75
2019-02-23T11:05:20.655Z,13.25
2019-02-23T11:07:49.070Z,9.50
2019-02-23T11:10:18.183Z,12.20
2019-02-23T11:12:46.848Z,15.25
2019-02-23T11:15:18.007Z,11.10
2019-02-23T11:17:46.404Z,12.10
2019-02-23T11:20:16.710Z,9.63
2019-02-23T11:22:45.110Z,11.68
2019-02-23T11:25:15.805Z,11.75
2019-02-23T11:27:44.193Z,12.28
2019-02-23T11:30:14.456Z,10.70
2019-02-23T11:32:42.868Z,11.93
2019-02-23T11:35:13.280Z,12.75
2019-02-23T11:37:41.684Z,10.95
2019-02-23T11:40:12.164Z,11.12
2019-02-23T11:42:40.555Z,12.65
2019-02-23T11:45:10.813Z,28.10
2019-02-23T11:47:39.241Z,14.07
2019-02-23T11:50:13.522Z,13.03
2019-02-23T11:52:42.214Z,10.05
2019-02-23T11:55:12.319Z,13.05
2019-02-23T11:57:40.763Z,9.65
2019-02-23T12:00:12.199Z,7.78
2019-02-23T12:02:51.778Z,11.95
2019-02-23T12:05:11.351Z,11.60
2019-02-23T12:07:39.754Z,10.38
2019-02-23T12:10:15.687Z,10.40
2019-02-23T12:12:44.431Z,10.13
2019-02-23T12:15:12.895Z,11.38
2019-02-23T12:17:41.308Z,10.85
2019-02-23T12:20:11.316Z,10.45
2019-02-23T12:22:39.736Z,14.18
2019-02-23T12:25:09.208Z,10.85
2019-02-23T12:27:37.601Z,10.25
2019-02-23T12:30:08.360Z,10.13
2019-02-23T12:32:45.761Z,11.22
2019-02-23T12:35:14.509Z,12.15
2019-02-23T12:37:42.983Z,9.95
2019-02-23T12:40:11.442Z,8.85
2019-02-23T12:42:39.862Z,10.55
2019-02-23T12:45:10.709Z,11.75
2019-02-23T12:47:39.117Z,10.80
2019-02-23T12:50:10.468Z,12.13
2019-02-23T12:52:39.178Z,9.23
2019-02-23T12:55:10.135Z,11.33
2019-02-23T12:57:38.807Z,9.53
2019-02-23T13:00:15.298Z,11.63
2019-02-23T13:02:42.921Z,8.48
2019-02-23T13:05:11.392Z,11.30
2019-02-23T13:07:40.066Z,12.93
2019-02-23T13:10:11.468Z,10.50
2019-02-23T13:13:03.777Z,10.13
2019-02-23T13:15:38.162Z,9.95
2019-02-23T13:18:18.652Z,10.90
2019-02-23T13:21:02.129Z,9.88
2019-02-23T13:23:54.516Z,9.93
2019-02-23T13:29:19.230Z,12.20
2019-02-23T13:32:05.571Z,9.68
2019-02-23T13:34:37.866Z,8.78
2019-02-23T13:37:11.913Z,11.00
2019-02-23T13:40:01.514Z,9.90
2019-02-23T13:42:41.489Z,12.13
2019-02-23T13:45:25.321Z,14.20
2019-02-23T13:48:14.934Z,11.22
2019-02-23T13:51:04.788Z,10.32
2019-02-23T13:53:57.015Z,13.58
2019-02-23T13:56:43.384Z,10.72
2019-02-23T13:59:34.439Z,9.78
2019-02-23T14:02:28.396Z,10.95
2019-02-23T14:05:12.261Z,11.60
2019-02-23T14:08:00.500Z,10.55
2019-02-23T14:10:31.963Z,10.48
2019-02-23T14:13:15.433Z,10.32
2019-02-23T14:16:11.092Z,10.03
2019-02-23T14:18:57.699Z,8.48
2019-02-23T14:21:53.602Z,9.78
2019-02-23T14:24:49.786Z,10.65
2019-02-23T14:27:47.261Z,10.82
2019-02-23T14:30:27.020Z,11.93
2019-02-23T14:33:13.081Z,11.65
2019-02-23T14:36:01.083Z,8.58
2019-02-23T14:39:06.582Z,11.38
2019-02-23T14:41:57.177Z,10.82
2019-02-23T14:44:31.788Z,11.75
2019-02-23T14:47:09.313Z,12.00
2019-02-23T14:50:00.346Z,16.42
2019-02-23T14:52:49.693Z,11.88
2019-02-23T14:55:27.164Z,11.93
2019-02-23T14:58:13.525Z,10.88
2019-02-23T15:00:47.513Z,13.78
2019-02-23T15:03:33.688Z,11.28
2019-02-23T15:06:17.330Z,13.72
2019-02-23T15:08:54.836Z,13.58
2019-02-23T15:11:53.777Z,10.80
2019-02-23T15:14:46.778Z,11.65
2019-02-23T15:17:26.860Z,12.35
2019-02-23T15:20:12.508Z,16.82
2019-02-23T15:22:59.281Z,13.20
2019-02-23T15:25:36.624Z,12.53
2019-02-23T15:28:30.505Z,12.85
2019-02-23T15:30:58.658Z,17.55
2019-02-23T15:33:42.102Z,15.48
2019-02-23T15:36:34.858Z,14.73
2019-02-23T15:39:12.755Z,14.98
2019-02-23T15:42:08.813Z,18.65
2019-02-23T15:44:52.071Z,18.37
2019-02-23T15:47:26.111Z,16.30
2019-02-23T15:49:55.958Z,15.72
2019-02-23T15:52:24.483Z,11.33
2019-02-23T15:54:53.265Z,15.32
2019-02-23T15:57:22.255Z,15.45
2019-02-23T15:59:50.768Z,12.55
2019-02-23T16:02:19.289Z,12.25
2019-02-23T16:04:47.743Z,17.50
2019-02-23T16:07:16.428Z,14.95
2019-02-23T16:09:45.243Z,19.12
2019-02-23T16:12:13.694Z,13.43
2019-02-23T16:14:42.112Z,13.95
2019-02-23T16:17:10.560Z,14.85
2019-02-23T16:19:38.953Z,14.23
2019-02-23T16:22:07.411Z,16.20
2019-02-23T16:24:35.969Z,14.60
2019-02-23T16:27:04.440Z,14.13
2019-02-23T16:29:33.176Z,14.83
2019-02-23T16:32:01.973Z,18.27
2019-02-23T16:34:30.457Z,32.17
2019-02-23T16:36:58.914Z,20.48
2019-02-23T16:39:27.335Z,20.23
2019-02-23T16:41:55.749Z,13.30
2019-02-23T16:44:24.188Z,11.25
2019-02-23T16:46:52.626Z,13.58
2019-02-23T16:49:21.638Z,11.78
2019-02-23T16:51:50.072Z,12.78
2019-02-23T16:54:18.508Z,15.20
2019-02-23T16:56:46.983Z,12.68
2019-02-23T16:59:15.775Z,17.27
2019-02-23T17:01:44.204Z,14.03
2019-02-23T17:04:12.608Z,15.45
2019-02-23T17:06:41.103Z,14.33
2019-02-23T17:09:10.529Z,15.70
2019-02-23T17:11:39.195Z,15.53
2019-02-23T17:14:07.793Z,13.22
2019-02-23T17:16:36.232Z,16.57
2019-02-23T17:19:07.003Z,17.00
2019-02-23T17:21:35.489Z,12.80
2019-02-23T17:24:03.945Z,14.68
2019-02-23T17:26:32.374Z,14.80
2019-02-23T17:29:00.881Z,16.87
2019-02-23T17:31:29.389Z,16.52
2019-02-23T17:33:59.513Z,18.57
2019-02-23T17:36:28.216Z,14.70
2019-02-23T17:38:56.655Z,14.33
2019-02-23T17:41:25.078Z,17.27
2019-02-23T17:43:54.227Z,17.05
2019-02-23T17:46:22.797Z,16.00
2019-02-23T17:48:51.199Z,18.40
2019-02-23T17:51:19.626Z,19.25
2019-02-23T17:53:48.291Z,18.40
2019-02-23T17:56:16.729Z,16.73
2019-02-23T17:58:45.129Z,17.80
2019-02-23T18:01:13.529Z,16.05
2019-02-23T18:03:42.212Z,14.40
2019-02-23T18:06:10.612Z,16.00
2019-02-23T18:08:39.037Z,15.23
2019-02-23T18:11:07.762Z,13.55
2019-02-23T18:13:36.207Z,13.48
2019-02-23T18:16:04.623Z,13.95
2019-02-23T18:18:33.051Z,15.00
2019-02-23T18:21:02.001Z,14.35
2019-02-23T18:23:30.380Z,14.23
2019-02-23T18:25:58.803Z,13.80
2019-02-23T18:28:27.204Z,12.05
2019-02-23T18:30:55.649Z,11.70
2019-02-23T18:33:24.431Z,14.78
2019-02-23T18:35:53.271Z,16.30
2019-02-23T18:38:21.765Z,14.03
